Time;durP1;ratioP1;P1;durP2;ratioP2;P2;SDS_P1;SDS_P2;PMS_P1;PMS_P2;Temp;Humidity;BMP_temperature;BMP_pressure;BME280_temperature;BME280_humidity;BME280_pressure;Samples;Min_cycle;Max_cycle;Signal;HPM_P1;HPM_P2
2021/09/21 00:01:40;;;;;;;6.78;4.05;;;;;;;;;;4993024;28;20061;-77
2021/09/21 00:04:06;;;;;;;6.40;4.22;;;;;;;;;;4992473;28;20398;-77
2021/09/21 00:06:32;;;;;;;6.35;3.80;;;;;;;;;;4992819;28;20511;-77
2021/09/21 00:08:58;;;;;;;5.32;4.07;;;;;;;;;;4992434;28;20026;-77
2021/09/21 00:11:24;;;;;;;9.88;4.32;;;;;;;;;;4992927;28;20029;-77
2021/09/21 00:13:50;;;;;;;6.13;4.20;;;;;;;;;;4992475;28;20423;-77
2021/09/21 00:16:16;;;;;;;6.47;4.60;;;;;;;;;;4975648;28;20069;-77
2021/09/21 00:18:42;;;;;;;5.82;4.20;;;;;;;;;;4974985;28;20038;-78
2021/09/21 00:21:08;;;;;;;5.30;4.07;;;;;;;;;;4992069;28;20073;-77
2021/09/21 00:23:34;;;;;;;5.72;3.75;;;;;;;;;;4992650;28;20027;-77
2021/09/21 00:26:00;;;;;;;6.32;4.30;;;;;;;;;;4992808;28;20494;-77
2021/09/21 00:28:26;;;;;;;5.15;4.28;;;;;;;;;;4992682;28;20034;-77
2021/09/21 00:30:53;;;;;;;4.90;3.83;;;;;;;;;;4992062;28;20146;-77
2021/09/21 00:33:21;;;;;;;5.18;3.80;;;;;;;;;;4992406;28;20023;-77
2021/09/21 00:35:48;;;;;;;5.65;4.63;;;;;;;;;;4992237;28;20030;-77
2021/09/21 00:38:15;;;;;;;7.88;4.25;;;;;;;;;;4992511;28;20066;-77
2021/09/21 00:40:42;;;;;;;4.75;4.25;;;;;;;;;;4991717;28;20033;-77
2021/09/21 00:43:08;;;;;;;7.18;4.28;;;;;;;;;;4992546;28;20023;-77
2021/09/21 00:45:34;;;;;;;8.90;5.10;;;;;;;;;;4992429;28;20022;-77
2021/09/21 00:48:01;;;;;;;6.68;4.22;;;;;;;;;;4992349;28;20496;-77
2021/09/21 00:50:28;;;;;;;7.38;4.75;;;;;;;;;;4991330;28;20550;-77
2021/09/21 00:52:55;;;;;;;6.43;4.88;;;;;;;;;;4992519;28;20372;-77
2021/09/21 00:55:21;;;;;;;5.70;4.60;;;;;;;;;;4975380;28;20034;-77
2021/09/21 00:57:47;;;;;;;7.30;4.43;;;;;;;;;;4992217;28;20500;-77
2021/09/21 01:00:15;;;;;;;7.75;4.55;;;;;;;;;;4991484;28;20049;-77
2021/09/21 01:02:41;;;;;;;6.68;4.72;;;;;;;;;;4992068;28;20026;-77
2021/09/21 01:05:08;;;;;;;8.18;4.70;;;;;;;;;;4992027;28;20018;-77
2021/09/21 01:07:38;;;;;;;6.63;4.53;;;;;;;;;;4992160;28;20050;-77
2021/09/21 01:10:05;;;;;;;5.65;4.47;;;;;;;;;;4974237;28;20064;-77
2021/09/21 01:12:31;;;;;;;8.18;4.85;;;;;;;;;;4992291;28;20056;-77
2021/09/21 01:14:58;;;;;;;6.60;4.88;;;;;;;;;;4992144;28;20081;-77
2021/09/21 01:17:24;;;;;;;6.10;4.40;;;;;;;;;;4974449;28;20451;-77
2021/09/21 01:19:50;;;;;;;5.60;5.00;;;;;;;;;;4991425;28;20023;-77
2021/09/21 01:22:16;;;;;;;9.25;4.75;;;;;;;;;;4992111;28;20506;-77
2021/09/21 01:24:42;;;;;;;6.78;4.82;;;;;;;;;;4974472;28;20059;-76
2021/09/21 01:27:08;;;;;;;7.07;4.05;;;;;;;;;;4974849;28;20070;-77
2021/09/21 01:29:34;;;;;;;5.88;4.78;;;;;;;;;;4991121;28;20030;-77
2021/09/21 01:32:01;;;;;;;5.70;4.78;;;;;;;;;;4992099;28;20035;-77
2021/09/21 01:34:27;;;;;;;6.95;4.68;;;;;;;;;;4991616;28;20030;-77
2021/09/21 01:36:53;;;;;;;8.30;5.00;;;;;;;;;;4991899;28;20068;-77
2021/09/21 01:39:19;;;;;;;6.22;5.07;;;;;;;;;;4973647;28;20027;-77
2021/09/21 01:41:46;;;;;;;6.30;4.70;;;;;;;;;;4991922;28;20052;-77
2021/09/21 01:44:15;;;;;;;8.40;4.80;;;;;;;;;;4991640;28;20022;-77
2021/09/21 01:46:41;;;;;;;7.43;5.25;;;;;;;;;;4992090;28;20061;-77
2021/09/21 01:49:07;;;;;;;6.65;5.40;;;;;;;;;;4991315;28;20062;-76
2021/09/21 01:51:36;;;;;;;7.03;4.95;;;;;;;;;;4974294;28;20060;-77
2021/09/21 01:59:31;;;;;;;7.07;5.38;;;;;;;;;;4991385;28;20104;-77
2021/09/21 02:01:57;;;;;;;6.20;5.22;;;;;;;;;;4993760;28;20030;-77
2021/09/21 02:04:23;;;;;;;9.55;6.28;;;;;;;;;;4977368;28;20109;-76
2021/09/21 02:06:51;;;;;;;6.30;5.63;;;;;;;;;;4977780;28;20026;-77
2021/09/21 02:09:17;;;;;;;8.10;6.60;;;;;;;;;;4994579;28;20073;-77
2021/09/21 02:11:44;;;;;;;6.15;5.55;;;;;;;;;;4995081;28;20034;-77
2021/09/21 02:14:13;;;;;;;10.25;6.22;;;;;;;;;;4994419;28;20042;-76
2021/09/21 02:16:39;;;;;;;8.85;6.60;;;;;;;;;;4977329;28;20052;-77
2021/09/21 02:19:05;;;;;;;7.35;6.25;;;;;;;;;;4994220;28;20038;-77
2021/09/21 02:21:31;;;;;;;7.50;6.63;;;;;;;;;;4977131;28;20027;-77
2021/09/21 02:23:58;;;;;;;9.18;6.70;;;;;;;;;;4994817;28;20454;-77
2021/09/21 02:26:24;;;;;;;7.07;6.30;;;;;;;;;;4994777;28;20034;-77
2021/09/21 02:28:50;;;;;;;7.55;6.72;;;;;;;;;;4976786;28;20112;-77
2021/09/21 02:31:16;;;;;;;7.65;6.82;;;;;;;;;;4977155;28;20121;-76
2021/09/21 02:33:42;;;;;;;8.80;7.22;;;;;;;;;;4977162;28;20157;-77
2021/09/21 02:36:08;;;;;;;7.80;6.65;;;;;;;;;;4994439;28;20045;-77
2021/09/21 02:38:35;;;;;;;8.30;7.22;;;;;;;;;;4994384;28;20635;-77
2021/09/21 02:41:02;;;;;;;10.70;7.03;;;;;;;;;;4994405;28;20034;-76
2021/09/21 02:43:27;;;;;;;10.10;7.53;;;19.50;99.90;;;;;;4994345;28;20131;-77
2021/09/21 02:45:53;;;;;;;9.30;6.90;;;12.00;99.90;;;;;;4994557;28;20062;-77
2021/09/21 02:48:18;;;;;;;8.65;7.75;;;11.30;99.90;;;;;;4994212;28;20030;-77
2021/09/21 02:50:45;;;;;;;7.38;6.63;;;10.80;99.90;;;;;;4976080;28;20062;-76
2021/09/21 02:53:11;;;;;;;11.07;7.50;;;12.10;99.90;;;;;;4994346;28;20018;-77
2021/09/21 02:55:36;;;;;;;10.32;7.22;;;11.50;99.90;;;;;;4994253;28;20117;-77
2021/09/21 02:58:02;;;;;;;8.57;6.35;;;10.90;99.90;;;;;;4994098;28;20113;-77
2021/09/21 03:00:28;;;;;;;9.23;7.25;;;11.10;99.90;;;;;;4993671;28;20113;-76
2021/09/21 03:02:57;;;;;;;8.00;7.20;;;10.90;99.90;;;;;;4994258;28;20058;-77
2021/09/21 03:05:37;;;;;;;8.23;6.40;;;11.50;99.90;;;;;;4993832;28;20101;-77
2021/09/21 03:08:17;;;;;;;8.63;6.80;;;12.10;99.90;;;;;;4993786;28;20037;-77
2021/09/21 03:18:33;;;;;;;6.30;5.40;;;12.80;99.90;;;;;;4979204;28;20084;-77
2021/09/21 03:20:59;;;;;;;10.98;6.20;;;11.80;99.90;;;;;;4992999;28;20570;-77
2021/09/21 03:23:25;;;;;;;11.45;5.88;;;11.70;99.90;;;;;;4993831;28;20026;-76
2021/09/21 03:25:51;;;;;;;9.07;5.18;;;11.70;99.90;;;;;;4993514;28;20023;-77
2021/09/21 03:28:17;;;;;;;6.15;5.55;;;11.50;99.90;;;;;;4993715;28;20030;-77
2021/09/21 03:30:43;;;;;;;5.72;5.00;;;12.10;99.90;;;;;;4992981;28;20066;-77
2021/09/21 03:33:09;;;;;;;6.72;5.57;;;11.60;99.90;;;;;;4976383;28;20045;-77
2021/09/21 03:35:34;;;;;;;6.05;5.28;;;11.90;99.90;;;;;;4993266;28;20454;-76
2021/09/21 03:38:00;;;;;;;7.93;5.28;;;11.90;99.90;;;;;;4976044;28;20034;-77
2021/09/21 03:40:26;;;;;;;5.78;4.88;;;13.20;99.90;;;;;;4992840;28;20023;-77
2021/09/21 03:42:51;;;;;;;7.38;5.32;;;11.80;99.90;;;;;;4993148;28;20030;-77
2021/09/21 03:45:17;;;;;;;5.40;4.80;;;11.80;99.90;;;;;;4993216;28;20510;-76
2021/09/21 03:47:43;;;;;;;6.00;5.15;;;12.10;99.90;;;;;;4993373;28;20411;-76
2021/09/21 03:50:09;;;;;;;7.32;5.63;;;11.90;99.90;;;;;;4992556;28;20027;-77
2021/09/21 03:52:35;;;;;;;5.88;5.00;;;11.70;99.90;;;;;;4992830;28;20115;-76
2021/09/21 03:55:03;;;;;;;7.82;5.35;;;12.10;99.90;;;;;;4993168;28;20559;-77
2021/09/21 03:57:29;;;;;;;6.25;5.18;;;12.10;99.90;;;;;;4993037;28;20033;-77
2021/09/21 03:59:55;;;;;;;6.97;5.82;;;12.30;99.90;;;;;;4975144;28;20076;-77
2021/09/21 04:02:20;;;;;;;6.25;5.28;;;11.90;99.90;;;;;;4959542;28;20484;-77
2021/09/21 04:04:46;;;;;;;7.45;5.60;;;13.00;99.90;;;;;;4992714;28;20033;-77
2021/09/21 04:07:12;;;;;;;5.68;5.05;;;12.30;99.90;;;;;;4959175;28;20105;-77
2021/09/21 04:09:37;;;;;;;6.82;5.88;;;11.90;99.90;;;;;;4992366;28;20373;-77
2021/09/21 04:12:03;;;;;;;6.72;5.13;;;12.50;99.90;;;;;;4992864;28;20033;-77
2021/09/21 04:14:31;;;;;;;5.75;5.15;;;11.80;99.90;;;;;;4992628;28;20543;-77
2021/09/21 04:16:57;;;;;;;11.23;5.22;;;11.90;99.90;;;;;;4975604;28;20064;-76
2021/09/21 04:19:23;;;;;;;6.15;4.97;;;12.90;99.90;;;;;;4992070;28;20030;-77
2021/09/21 04:21:48;;;;;;;5.85;5.10;;;12.60;99.90;;;;;;4992474;28;20049;-77
2021/09/21 04:24:14;;;;;;;7.57;5.30;;;12.20;99.90;;;;;;4992167;28;20068;-77
2021/09/21 04:26:39;;;;;;;5.72;5.10;;;12.10;99.90;;;;;;4992804;28;20077;-77
2021/09/21 04:29:05;;;;;;;6.57;5.43;;;12.10;99.90;;;;;;4992218;28;20058;-77
2021/09/21 04:31:32;;;;;;;7.78;5.55;;;12.10;99.90;;;;;;4992478;28;20066;-76
2021/09/21 04:33:58;;;;;;;7.10;5.30;;;12.40;99.90;;;;;;4991489;28;20023;-77
2021/09/21 04:36:24;;;;;;;6.45;5.63;;;12.10;99.90;;;;;;4992370;28;20506;-77
2021/09/21 04:38:49;;;;;;;6.88;5.70;;;13.50;99.90;;;;;;4992440;28;20038;-77
2021/09/21 04:41:15;;;;;;;10.18;5.35;;;12.10;99.90;;;;;;4974784;28;20027;-77
2021/09/21 04:43:41;;;;;;;5.95;5.15;;;12.30;99.90;;;;;;4992579;28;20027;-77
2021/09/21 04:46:08;;;;;;;8.77;5.15;;;11.80;99.90;;;;;;4992430;28;20027;-77
2021/09/21 04:48:35;;;;;;;9.13;5.68;;;12.40;99.90;;;;;;4975285;28;20026;-77
2021/09/21 04:51:01;;;;;;;6.78;5.20;;;11.90;99.90;;;;;;4991762;28;20037;-77
2021/09/21 04:53:27;;;;;;;9.65;5.75;;;12.00;99.90;;;;;;4992474;28;20037;-77
2021/09/21 04:55:52;;;;;;;7.18;5.88;;;12.00;99.90;;;;;;4992369;28;20038;-77
2021/09/21 04:58:18;;;;;;;6.55;5.60;;;11.80;99.90;;;;;;4992408;28;20034;-77
2021/09/21 05:00:44;;;;;;;6.13;5.47;;;13.00;99.90;;;;;;4974137;28;20023;-77
2021/09/21 05:03:09;;;;;;;7.70;5.60;;;12.70;99.90;;;;;;4992352;28;20089;-77
2021/09/21 05:05:35;;;;;;;6.28;5.60;;;11.90;99.90;;;;;;4991977;28;20531;-76
2021/09/21 05:08:01;;;;;;;6.80;5.55;;;11.80;99.90;;;;;;4992445;28;20046;-77
2021/09/21 05:10:28;;;;;;;8.93;6.38;;;12.40;99.90;;;;;;4991938;28;20026;-77
2021/09/21 05:12:53;;;;;;;7.55;5.95;;;11.90;99.90;;;;;;4992383;28;20030;-77
2021/09/21 05:15:19;;;;;;;9.07;5.75;;;12.10;99.90;;;;;;4992305;28;20495;-76
2021/09/21 05:17:45;;;;;;;9.65;5.78;;;12.00;99.90;;;;;;4992026;28;20120;-77
2021/09/21 05:20:11;;;;;;;7.65;5.50;;;12.20;99.90;;;;;;4991437;28;20121;-77
2021/09/21 05:22:37;;;;;;;10.90;6.20;;;12.00;99.90;;;;;;4992367;28;20023;-77
2021/09/21 05:25:04;;;;;;;6.13;5.43;;;12.20;99.90;;;;;;4974665;28;20027;-77
2021/09/21 05:27:29;;;;;;;7.65;5.22;;;12.00;99.90;;;;;;4992096;28;20384;-77
2021/09/21 05:29:55;;;;;;;6.25;5.32;;;11.90;99.90;;;;;;4974179;28;20133;-77
2021/09/21 05:32:21;;;;;;;8.25;5.82;;;11.80;99.90;;;;;;4992124;28;20038;-77
2021/09/21 05:34:46;;;;;;;6.40;5.50;;;13.40;99.90;;;;;;4991659;28;20026;-77
2021/09/21 05:37:12;;;;;;;7.47;5.63;;;11.80;99.90;;;;;;4994263;28;20038;-77
2021/09/21 05:39:38;;;;;;;10.70;6.00;;;12.10;99.90;;;;;;4977821;28;20038;-77
2021/09/21 05:42:03;;;;;;;7.70;5.65;;;12.70;99.90;;;;;;4978267;28;20084;-77
2021/09/21 05:44:29;;;;;;;7.28;5.68;;;12.20;99.90;;;;;;4995480;28;20033;-77
2021/09/21 05:46:54;;;;;;;8.10;6.00;;;12.70;99.90;;;;;;4962241;28;20113;-77
2021/09/21 05:49:20;;;;;;;8.38;6.50;;;12.10;99.90;;;;;;4995016;28;20030;-77
2021/09/21 05:51:46;;;;;;;7.45;5.85;;;12.80;99.90;;;;;;4977689;28;20499;-77
2021/09/21 05:54:11;;;;;;;7.78;5.88;;;12.90;99.90;;;;;;4977990;28;20033;-77
2021/09/21 05:56:37;;;;;;;7.38;5.78;;;13.80;99.90;;;;;;4996162;28;20027;-77
2021/09/21 05:59:02;;;;;;;8.85;6.80;;;12.40;99.90;;;;;;4977199;28;20180;-77
2021/09/21 06:01:30;;;;;;;6.78;5.22;;;13.00;99.90;;;;;;4995147;28;20027;-77
2021/09/21 06:03:56;;;;;;;10.10;5.45;;;12.30;99.90;;;;;;4995268;28;20034;-77
2021/09/21 06:06:22;;;;;;;18.17;5.55;;;;;;;;;;4994934;28;20027;-77
2021/09/21 06:08:49;;;;;;;7.00;5.40;;;;;;;;;;4987699;28;20112;-77
2021/09/21 06:11:20;;;;;;;9.63;5.32;;;;;;;;;;4990932;28;20036;-77
2021/09/21 06:13:47;;;;;;;6.47;5.65;;;;;;;;;;4994723;28;20031;-77
2021/09/21 06:16:14;;;;;;;6.03;5.43;;;;;;;;;;4984827;28;20026;-76
2021/09/21 06:18:40;;;;;;;6.10;5.47;;;;;;;;;;4988702;28;20026;-76
2021/09/21 06:21:06;;;;;;;9.25;5.90;;;;;;;;;;5012901;28;20037;-77
2021/09/21 06:23:32;;;;;;;8.07;6.03;;;;;;;;;;5006264;28;20069;-75
2021/09/21 06:25:58;;;;;;;8.55;5.38;;;;;;;;;;5008434;28;20030;-77
2021/09/21 06:28:24;;;;;;;6.68;5.45;;;;;;;;;;5006598;28;20034;-77
2021/09/21 06:30:50;;;;;;;6.95;6.00;;;;;;;;;;4981595;28;20088;-77
2021/09/21 06:33:16;;;;;;;7.90;5.90;;;;;;;;;;4977393;28;20034;-77
2021/09/21 06:35:42;;;;;;;9.68;5.65;;;;;;;;;;4994261;28;20026;-77
2021/09/21 06:38:08;;;;;;;9.43;6.22;;;;;;;;;;4977025;28;20042;-77
2021/09/21 06:40:34;;;;;;;10.13;6.30;;;;;;;;;;4976471;28;20081;-76
2021/09/21 06:43:00;;;;;;;7.25;6.22;;;;;;;;;;4994399;28;20033;-77
2021/09/21 06:45:27;;;;;;;6.72;6.03;;;;;;;;;;4993461;28;20026;-77
2021/09/21 06:47:53;;;;;;;6.82;5.55;;;;;;;;;;5010785;28;20030;-76
2021/09/21 06:50:19;;;;;;;7.72;5.63;;;;;;;;;;4989086;28;20031;-77
2021/09/21 06:52:45;;;;;;;9.10;5.53;;;;;;;;;;4984038;28;20057;-76
2021/09/21 06:55:12;;;;;;;9.30;5.75;;;;;;;;;;5005305;28;20144;-76
2021/09/21 06:57:38;;;;;;;7.40;5.72;;;;;;;;;;4996094;28;20026;-76
2021/09/21 07:00:06;;;;;;;6.75;5.90;;;;;;;;;;4979922;28;20033;-78
2021/09/21 07:02:32;;;;;;;11.93;6.07;;;;;;;;;;4994766;28;20492;-77
2021/09/21 07:04:58;;;;;;;8.68;6.20;;;;;;;;;;4976703;28;20471;-77
2021/09/21 07:07:24;;;;;;;7.85;6.15;;;;;;;;;;4976769;28;20037;-77
2021/09/21 07:09:50;;;;;;;9.63;5.40;;;;;;;;;;4993399;28;20022;-77
2021/09/21 07:12:16;;;;;;;8.77;6.10;;;;;;;;;;4994739;28;20399;-78
2021/09/21 07:14:42;;;;;;;7.70;5.70;;;;;;;;;;4994101;28;20041;-78
2021/09/21 07:17:09;;;;;;;9.00;5.15;;;;;;;;;;4973155;28;20113;-78
2021/09/21 07:19:35;;;;;;;10.55;5.60;;;;;;;;;;4991004;28;20030;-78
2021/09/21 07:22:01;;;;;;;10.73;5.47;;;;;;;;;;4979188;28;20048;-77
2021/09/21 07:24:27;;;;;;;8.25;5.60;;;;;;;;;;5012904;28;20030;-76
2021/09/21 07:26:53;;;;;;;8.60;5.50;;;;;;;;;;5013169;28;20056;-77
2021/09/21 07:29:19;;;;;;;7.75;5.50;;;;;;;;;;5012334;28;20030;-77
2021/09/21 07:31:45;;;;;;;7.28;5.75;;;;;;;;;;4996534;28;20450;-76
2021/09/21 07:34:11;;;;;;;10.25;6.20;;;;;;;;;;4988625;28;20450;-77
2021/09/21 07:36:37;;;;;;;9.38;5.10;;;;;;;;;;4972186;28;20027;-76
2021/09/21 07:39:04;;;;;;;10.13;6.00;;;;;;;;;;4988430;28;20109;-76
2021/09/21 07:41:30;;;;;;;9.15;6.32;;;;;;;;;;4971465;28;20019;-76
2021/09/21 07:43:57;;;;;;;14.07;6.25;;;;;;;;;;4988508;28;20026;-81
2021/09/21 07:46:23;;;;;;;7.60;5.22;;;;;;;;;;4971496;28;20033;-76
2021/09/21 07:48:49;;;;;;;7.75;5.28;;;;;;;;;;4988240;28;20427;-77
2021/09/21 07:51:15;;;;;;;5.65;4.80;;;;;;;;;;4989380;28;20034;-77
2021/09/21 07:53:41;;;;;;;8.13;5.05;;;;;;;;;;4988764;28;20034;-77
2021/09/21 07:56:07;;;;;;;6.90;5.20;;;;;;;;;;4989098;28;20026;-77
2021/09/21 07:58:33;;;;;;;7.97;4.97;;;;;;;;;;4988736;28;20507;-78
2021/09/21 08:00:59;;;;;;;9.52;4.93;;;;;;;;;;4988698;28;20050;-77
2021/09/21 08:03:25;;;;;;;8.50;4.72;;;;;;;;;;4988913;28;20439;-78
2021/09/21 08:05:51;;;;;;;7.18;4.93;;;;;;;;;;4971497;28;20028;-79
2021/09/21 08:08:17;;;;;;;6.05;5.05;;;;;;;;;;4990555;28;20057;-77
2021/09/21 08:10:43;;;;;;;9.60;5.18;;;;;;;;;;4993188;28;20100;-78
2021/09/21 08:13:09;;;;;;;6.03;4.50;;;;;;;;;;4976645;28;20492;-78
2021/09/21 08:15:35;;;;;;;11.63;4.55;;;;;;;;;;4994321;28;20042;-77
2021/09/21 08:18:02;;;;;;;9.82;4.45;;;;;;;;;;4976148;28;20137;-78
2021/09/21 08:20:29;;;;;;;6.10;4.60;;;;;;;;;;4992757;28;20027;-77
2021/09/21 08:22:56;;;;;;;6.10;4.50;;;;;;;;;;4993615;28;20106;-79
2021/09/21 08:25:22;;;;;;;6.50;4.45;;;;;;;;;;4993461;28;20027;-79
2021/09/21 08:27:48;;;;;;;5.25;4.38;;;;;;;;;;4996499;28;20026;-78
2021/09/21 08:30:17;;;;;;;5.35;4.32;;;;;;;;;;4989484;28;20034;-78
2021/09/21 08:32:43;;;;;;;5.10;4.07;;;;;;;;;;4985894;28;20615;-79
2021/09/21 08:35:09;;;;;;;4.85;4.38;;;;;;;;;;4975557;28;20490;-79
2021/09/21 08:37:35;;;;;;;5.47;4.82;;;;;;;;;;4982718;28;20026;-79
2021/09/21 08:40:01;;;;;;;5.13;4.20;;;;;;;;;;4994893;28;20087;-80
2021/09/21 08:42:27;;;;;;;6.30;4.45;;;;;;;;;;4995186;28;20378;-80
2021/09/21 08:44:53;;;;;;;5.78;4.13;;;;;;;;;;4985222;28;20018;-78
2021/09/21 08:47:20;;;;;;;6.15;4.18;;;;;;;;;;5012155;28;20054;-78
2021/09/21 08:49:46;;;;;;;7.80;4.00;;;;;;;;;;4995526;28;20411;-78
2021/09/21 08:52:13;;;;;;;6.00;3.80;;;;;;;;;;4994796;28;20037;-78
2021/09/21 08:54:39;;;;;;;6.80;3.50;;;;;;;;;;5006165;28;20017;-77
2021/09/21 08:57:07;;;;;;;5.97;3.85;;;;;;;;;;4988668;28;20073;-76
2021/09/21 08:59:34;;;;;;;7.85;3.88;;;;;;;;;;4988029;28;20714;-76
2021/09/21 09:02:11;;;;;;;5.20;3.53;;;;;;;;;;4971085;28;20061;-77
2021/09/21 09:04:38;;;;;;;5.15;3.78;;;;;;;;;;4988139;28;20030;-76
2021/09/21 09:07:04;;;;;;;5.35;3.63;;;;;;;;;;4988164;28;20026;-76
2021/09/21 09:09:32;;;;;;;4.43;3.47;;;;;;;;;;4988648;28;20545;-76
2021/09/21 09:11:59;;;;;;;4.20;3.58;;;;;;;;;;4991151;28;20045;-76
2021/09/21 09:14:25;;;;;;;6.10;3.25;;;;;;;;;;4983679;28;20116;-76
2021/09/21 09:16:55;;;;;;;5.38;3.60;;;;;;;;;;4978220;28;20455;-77
2021/09/21 09:19:21;;;;;;;6.15;3.45;;;;;;;;;;4994634;28;20030;-77
2021/09/21 09:21:49;;;;;;;3.80;2.55;;;;;;;;;;5034041;23;20129;-80
2021/09/21 09:24:15;;;;;;;3.75;3.05;;;;;;;;;;5015599;28;20037;-77
2021/09/21 09:26:42;;;;;;;4.22;3.22;;;;;;;;;;5014304;28;20050;-77
2021/09/21 09:29:09;;;;;;;4.97;3.40;;;;;;;;;;5014887;28;20553;-77
2021/09/21 09:31:36;;;;;;;3.72;2.97;;;;;;;;;;5031081;28;20033;-77
2021/09/21 09:34:06;;;;;;;4.88;3.10;;;;;;;;;;5035333;28;20064;-76
2021/09/21 09:36:41;;;;;;;6.80;3.00;;;;;;;;;;5029771;28;20029;-77
2021/09/21 09:39:07;;;;;;;4.05;3.35;;;;;;;;;;5036899;28;20034;-79
2021/09/21 09:41:40;;;;;;;5.88;2.95;;;;;;;;;;5036145;28;20021;-79
2021/09/21 09:44:10;;;;;;;3.33;2.55;;;;;;;;;;5030493;28;20096;-79
2021/09/21 09:46:45;;;;;;;4.25;3.05;;;;;;;;;;5016197;28;20017;-80
2021/09/21 09:49:11;;;;;;;4.13;2.90;;;;;;;;;;5015545;28;20025;-80
2021/09/21 09:51:45;;;;;;;4.43;2.90;;;;;;;;;;5036468;28;20029;-79
2021/09/21 09:54:11;;;;;;;4.38;2.90;;;;;;;;;;5042281;28;20632;-78
2021/09/21 09:56:37;;;;;;;6.93;2.95;;;;;;;;;;5019913;28;20029;-77
2021/09/21 09:59:03;;;;;;;5.68;3.03;;;;;;;;;;5034281;28;20033;-79
2021/09/21 10:01:29;;;;;;;7.43;3.00;;;;;;;;;;5035381;28;20033;-79
2021/09/21 10:03:57;;;;;;;4.68;3.00;;;;;;;;;;5034749;28;20060;-77
2021/09/21 10:06:23;;;;;;;4.40;3.20;;;;;;;;;;5035906;28;20032;-79
2021/09/21 10:08:51;;;;;;;3.58;2.78;;;;;;;;;;5003218;28;20521;-79
2021/09/21 10:11:18;;;;;;;6.95;3.13;;;;;;;;;;5003304;28;20029;-79
2021/09/21 10:13:44;;;;;;;3.90;3.10;;;;;;;;;;5021621;28;20046;-79
2021/09/21 10:16:10;;;;;;;4.88;2.70;;;;;;;;;;5024293;28;20129;-79
2021/09/21 10:18:39;;;;;;;5.43;2.92;;;;;;;;;;5023758;28;20049;-82
2021/09/21 10:21:05;;;;;;;4.13;2.88;;;;;;;;;;5002207;28;20141;-81
2021/09/21 10:23:33;;;;;;;4.07;3.20;;;;;;;;;;5019476;28;20026;-81
2021/09/21 10:26:10;;;;;;;3.88;3.00;;;;;;;;;;5040023;28;20026;-81
2021/09/21 10:28:39;;;;;;;4.57;3.55;;;;;;;;;;5023220;28;20033;-81
2021/09/21 10:31:11;;;;;;;5.55;2.90;;;;;;;;;;5021380;28;20033;-77
2021/09/21 10:33:37;;;;;;;4.18;3.13;;;;;;;;;;5022909;28;20024;-81
2021/09/21 10:36:03;;;;;;;5.28;3.70;;;;;;;;;;5040744;28;20476;-81
2021/09/21 10:38:29;;;;;;;5.40;3.10;;;;;;;;;;5039353;28;20485;-82
2021/09/21 10:41:03;;;;;;;4.97;3.05;;;;;;;;;;5037000;28;20076;-81
2021/09/21 10:43:30;;;;;;;4.90;3.03;;;;;;;;;;5021297;28;20513;-82
2021/09/21 10:46:07;;;;;;;4.68;2.92;;;;;;;;;;5002443;28;20093;-81
2021/09/21 10:48:37;;;;;;;4.45;3.08;;;;;;;;;;5020406;28;20048;-81
2021/09/21 10:51:04;;;;;;;6.15;3.10;;;;;;;;;;5020947;28;20038;-82
2021/09/21 10:53:30;;;;;;;4.78;3.22;;;;;;;;;;5038461;28;20080;-81
2021/09/21 10:56:01;;;;;;;5.43;3.25;;;;;;;;;;5038754;28;20030;-81
2021/09/21 10:58:27;;;;;;;6.43;3.20;;;;;;;;;;5019913;28;20544;-81
2021/09/21 11:00:53;;;;;;;3.67;3.08;;;;;;;;;;5021412;28;20095;-81
2021/09/21 11:03:19;;;;;;;4.50;3.42;;;;;;;;;;5041394;28;20029;-82
2021/09/21 11:05:45;;;;;;;5.50;3.25;;;;;;;;;;5039481;28;20378;-81
2021/09/21 11:08:16;;;;;;;5.07;2.97;;;;;;;;;;5030752;28;20029;-82
2021/09/21 11:10:44;;;;;;;5.10;3.28;;;;;;;;;;5037791;28;20028;-82
2021/09/21 11:13:11;;;;;;;5.53;3.50;;;;;;;;;;5019976;28;20085;-80
2021/09/21 11:15:37;;;;;;;3.75;3.00;;;;;;;;;;5019562;28;20029;-79
2021/09/21 11:18:03;;;;;;;5.53;3.13;;;;;;;;;;5035678;28;20040;-79
2021/09/21 11:20:29;;;;;;;3.95;3.00;;;;;;;;;;5021587;28;20033;-79
2021/09/21 11:22:59;;;;;;;4.25;3.05;;;;;;;;;;5038320;28;20029;-79
2021/09/21 11:25:27;;;;;;;3.97;2.78;;;;;;;;;;5040319;28;20030;-79
2021/09/21 11:27:55;;;;;;;5.13;3.10;;;;;;;;;;5021706;28;20106;-79
2021/09/21 11:30:21;;;;;;;5.75;3.00;;;;;;;;;;5018525;28;20041;-81
2021/09/21 11:32:47;;;;;;;4.85;3.15;;;;;;;;;;5017228;28;20025;-82
2021/09/21 11:35:15;;;;;;;4.95;3.20;;;;;;;;;;5038309;28;20489;-82
2021/09/21 11:37:42;;;;;;;6.55;2.72;;;;;;;;;;5022520;28;20030;-81
2021/09/21 11:40:08;;;;;;;3.85;3.05;;;;;;;;;;5018268;28;20030;-81
2021/09/21 11:42:35;;;;;;;5.10;3.00;;;;;;;;;;5032640;28;20030;-81
2021/09/21 11:45:03;;;;;;;4.88;2.90;;;;;;;;;;5025715;28;20041;-78
2021/09/21 11:47:35;;;;;;;3.38;2.72;;;;;;;;;;5031721;28;20068;-79
2021/09/21 11:50:01;;;;;;;5.03;2.70;;;;;;;;;;5037688;28;20026;-78
2021/09/21 11:52:27;;;;;;;7.07;3.53;;;;;;;;;;5030543;28;20037;-77
2021/09/21 11:54:53;;;;;;;4.60;3.08;;;;;;;;;;4995287;28;20030;-76
2021/09/21 11:57:20;;;;;;;4.10;2.55;;;;;;;;;;5041343;28;20044;-77
2021/09/21 11:59:47;;;;;;;5.50;3.05;;;;;;;;;;5044961;28;20050;-78
2021/09/21 12:02:18;;;;;;;4.60;3.22;;;;;;;;;;5025651;28;20026;-79
2021/09/21 12:04:44;;;;;;;4.57;2.72;;;;;;;;;;5017564;28;20018;-78
2021/09/21 12:07:10;;;;;;;5.85;3.33;;;;;;;;;;5017939;28;20049;-79
2021/09/21 12:09:36;;;;;;;4.60;3.42;;;;;;;;;;5012988;28;20112;-80
2021/09/21 12:12:11;;;;;;;4.85;3.55;;;;;;;;;;5013524;28;20022;-81
2021/09/21 12:14:37;;;;;;;4.93;2.67;;;;;;;;;;5013515;28;20056;-80
2021/09/21 12:17:03;;;;;;;4.82;3.00;;;;;;;;;;4991717;28;20471;-80
2021/09/21 12:19:29;;;;;;;5.60;2.97;;;;;;;;;;4989375;28;20056;-80
2021/09/21 12:21:59;;;;;;;4.63;3.13;;;;;;;;;;5012757;28;20030;-80
2021/09/21 12:24:31;;;;;;;3.20;2.80;;;;;;;;;;5016319;28;20513;-80
2021/09/21 12:27:04;;;;;;;7.80;3.92;;;;;;;;;;5015648;28;20042;-80
2021/09/21 12:29:36;;;;;;;4.90;2.97;;;;;;;;;;5003895;28;21543;-80
2021/09/21 12:32:04;;;;;;;3.72;3.30;;;;;;;;;;5015847;28;20036;-80
2021/09/21 12:34:34;;;;;;;3.17;2.60;;;;;;;;;;4987881;28;20153;-80
2021/09/21 12:37:01;;;;;;;4.47;3.20;;;;;;;;;;5020078;28;20034;-80
2021/09/21 12:39:31;;;;;;;5.57;2.92;;;;;;;;;;5012864;28;20030;-80
2021/09/21 12:42:00;;;;;;;4.65;3.03;;;;;;;;;;4996107;28;20072;-80
2021/09/21 12:44:26;;;;;;;7.43;3.13;;;;;;;;;;5022065;28;20033;-79
2021/09/21 12:46:54;;;;;;;4.32;3.00;;;;;;;;;;5007566;28;20109;-80
2021/09/21 12:49:20;;;;;;;5.45;3.28;;;;;;;;;;5007077;28;20033;-79
2021/09/21 12:51:51;;;;;;;7.18;2.97;;;;;;;;;;5030284;28;20040;-80
2021/09/21 12:54:21;;;;;;;5.63;3.15;;;;;;;;;;5036855;28;20052;-80
2021/09/21 12:56:49;;;;;;;4.82;3.33;;;;;;;;;;5022144;28;20022;-79
2021/09/21 12:59:25;;;;;;;5.75;3.00;;;;;;;;;;5010263;28;20030;-78
2021/09/21 13:01:53;;;;;;;3.97;3.20;;;;;;;;;;5000337;28;20129;-79
2021/09/21 13:04:19;;;;;;;3.83;3.00;;;;;;;;;;5010369;28;20041;-79
2021/09/21 13:06:48;;;;;;;5.68;3.13;;;;;;;;;;5008647;28;20026;-79
2021/09/21 13:09:14;;;;;;;7.32;3.63;;;;;;;;;;4998472;28;20058;-80
2021/09/21 13:11:41;;;;;;;5.38;3.13;;;;;;;;;;5009957;28;20045;-80
2021/09/21 13:14:07;;;;;;;4.47;3.17;;;;;;;;;;5030112;28;20514;-80
2021/09/21 13:16:34;;;;;;;6.40;3.45;;;;;;;;;;5021912;28;20056;-80
2021/09/21 13:19:00;;;;;;;5.38;3.15;;;;;;;;;;5018214;28;20049;-79
2021/09/21 13:21:26;;;;;;;3.85;2.83;;;;;;;;;;5030716;28;20029;-80
2021/09/21 13:23:53;;;;;;;4.30;3.10;;;;;;;;;;5016076;28;20151;-80
2021/09/21 13:26:19;;;;;;;7.97;3.10;;;;;;;;;;5003168;28;20538;-79
2021/09/21 13:28:46;;;;;;;4.05;3.22;;;;;;;;;;5043268;28;20034;-79
2021/09/21 13:31:12;;;;;;;3.30;2.80;;;;;;;;;;5010521;28;20033;-81
2021/09/21 13:33:39;;;;;;;3.53;2.75;;;;;;;;;;5028236;28;20090;-80
2021/09/21 13:36:05;;;;;;;3.90;3.00;;;;;;;;;;5031733;28;20034;-79
2021/09/21 13:38:31;;;;;;;4.55;3.10;;;;;;;;;;4987545;28;20376;-79
2021/09/21 13:40:57;;;;;;;3.78;2.90;;;;;;;;;;5016587;28;20490;-80
2021/09/21 13:43:23;;;;;;;3.22;2.55;;;;;;;;;;4998908;28;20032;-79
2021/09/21 13:45:49;;;;;;;4.63;2.72;;;;;;;;;;5017452;28;20038;-79
2021/09/21 13:48:15;;;;;;;3.70;3.20;;;;;;;;;;5036368;28;20386;-80
2021/09/21 13:50:41;;;;;;;4.03;3.22;;;;;;;;;;5023176;28;20030;-81
2021/09/21 13:53:08;;;;;;;4.88;2.80;;;;;;;;;;5024634;28;20034;-80
2021/09/21 13:55:34;;;;;;;3.97;3.00;;;;;;;;;;5015828;28;20038;-80
2021/09/21 13:58:00;;;;;;;3.30;2.75;;;;;;;;;;5017763;28;20085;-80
2021/09/21 14:00:26;;;;;;;3.55;2.50;;;;;;;;;;5018442;28;20022;-81
2021/09/21 14:02:53;;;;;;;3.58;3.20;;;;;;;;;;5020207;28;20085;-80
2021/09/21 14:05:19;;;;;;;5.38;2.92;;;;;;;;;;5020106;28;20022;-81
2021/09/21 14:07:46;;;;;;;5.90;3.00;;;;;;;;;;5017219;28;20037;-80
2021/09/21 14:10:12;;;;;;;4.00;3.05;;;;;;;;;;5018945;28;20083;-80
2021/09/21 14:12:38;;;;;;;5.78;2.90;;;;;;;;;;5011291;28;20513;-80
2021/09/21 14:15:07;;;;;;;3.33;2.90;;;;;;;;;;5016590;28;20037;-80
2021/09/21 14:17:40;;;;;;;4.13;2.85;;;;;;;;;;5033339;28;20037;-80
2021/09/21 14:20:07;;;;;;;3.65;2.65;;;;;;;;;;5028077;28;20046;-81
2021/09/21 14:22:33;;;;;;;3.58;2.92;;;;;;;;;;5032243;28;20452;-79
2021/09/21 14:25:00;;;;;;;7.32;3.30;;;;;;;;;;5029917;28;20084;-79